sensor_id;sensor_type;location;lat;lon;timestamp;P1;durP1;ratioP1;P2;durP2;ratioP2
3083;SDS011;1552;51.952;7.618;2023-03-17T00:00:16;6.50;;;4.00;;
3083;SDS011;1552;51.952;7.618;2023-03-17T00:02:43;6.67;;;3.90;;
3083;SDS011;1552;51.952;7.618;2023-03-17T00:05:20;5.97;;;4.03;;
3083;SDS011;1552;51.952;7.618;2023-03-17T00:07:48;7.73;;;3.90;;
3083;SDS011;1552;51.952;7.618;2023-03-17T00:10:16;5.97;;;3.73;;
3083;SDS011;1552;51.952;7.618;2023-03-17T00:12:43;8.20;;;3.73;;
3083;SDS011;1552;51.952;7.618;2023-03-17T00:15:12;7.23;;;4.13;;
3083;SDS011;1552;51.952;7.618;2023-03-17T00:17:39;6.37;;;3.60;;
3083;SDS011;1552;51.952;7.618;2023-03-17T00:20:05;6.00;;;3.77;;
3083;SDS011;1552;51.952;7.618;2023-03-17T00:22:35;3.97;;;3.40;;
3083;SDS011;1552;51.952;7.618;2023-03-17T00:25:01;5.83;;;3.33;;
3083;SDS011;1552;51.952;7.618;2023-03-17T00:27:27;6.63;;;3.77;;
3083;SDS011;1552;51.952;7.618;2023-03-17T00:29:54;6.97;;;3.73;;
3083;SDS011;1552;51.952;7.618;2023-03-17T00:32:21;5.17;;;3.63;;
3083;SDS011;1552;51.952;7.618;2023-03-17T00:34:48;5.33;;;4.00;;
3083;SDS011;1552;51.952;7.618;2023-03-17T00:37:14;4.63;;;3.37;;
3083;SDS011;1552;51.952;7.618;2023-03-17T00:39:40;6.10;;;3.80;;
3083;SDS011;1552;51.952;7.618;2023-03-17T00:42:07;5.87;;;3.97;;
3083;SDS011;1552;51.952;7.618;2023-03-17T00:44:34;6.60;;;3.93;;
3083;SDS011;1552;51.952;7.618;2023-03-17T00:47:00;9.30;;;3.23;;
3083;SDS011;1552;51.952;7.618;2023-03-17T00:49:28;6.77;;;3.77;;
3083;SDS011;1552;51.952;7.618;2023-03-17T00:51:54;5.23;;;3.77;;
3083;SDS011;1552;51.952;7.618;2023-03-17T00:54:23;6.80;;;3.90;;
3083;SDS011;1552;51.952;7.618;2023-03-17T00:56:49;5.47;;;3.67;;
3083;SDS011;1552;51.952;7.618;2023-03-17T00:59:18;5.07;;;3.60;;
3083;SDS011;1552;51.952;7.618;2023-03-17T01:01:45;5.97;;;3.57;;
3083;SDS011;1552;51.952;7.618;2023-03-17T01:04:12;6.80;;;3.37;;
3083;SDS011;1552;51.952;7.618;2023-03-17T01:06:40;6.33;;;3.30;;
3083;SDS011;1552;51.952;7.618;2023-03-17T01:09:07;4.70;;;3.03;;
3083;SDS011;1552;51.952;7.618;2023-03-17T01:11:34;5.13;;;3.30;;
3083;SDS011;1552;51.952;7.618;2023-03-17T01:14:00;4.50;;;3.27;;
3083;SDS011;1552;51.952;7.618;2023-03-17T01:16:27;4.73;;;3.27;;
3083;SDS011;1552;51.952;7.618;2023-03-17T01:18:53;6.23;;;3.83;;
3083;SDS011;1552;51.952;7.618;2023-03-17T01:21:20;7.90;;;3.70;;
3083;SDS011;1552;51.952;7.618;2023-03-17T01:23:47;6.17;;;3.67;;
3083;SDS011;1552;51.952;7.618;2023-03-17T01:26:14;6.50;;;3.57;;
3083;SDS011;1552;51.952;7.618;2023-03-17T01:28:40;6.27;;;3.60;;
3083;SDS011;1552;51.952;7.618;2023-03-17T01:31:07;4.70;;;3.30;;
3083;SDS011;1552;51.952;7.618;2023-03-17T01:33:34;7.00;;;3.10;;
3083;SDS011;1552;51.952;7.618;2023-03-17T01:36:00;6.03;;;3.33;;
3083;SDS011;1552;51.952;7.618;2023-03-17T01:38:27;4.07;;;3.57;;
3083;SDS011;1552;51.952;7.618;2023-03-17T01:40:55;4.20;;;2.87;;
3083;SDS011;1552;51.952;7.618;2023-03-17T01:43:22;5.50;;;3.13;;
3083;SDS011;1552;51.952;7.618;2023-03-17T01:48:35;5.37;;;2.90;;
3083;SDS011;1552;51.952;7.618;2023-03-17T01:51:03;5.07;;;3.13;;
3083;SDS011;1552;51.952;7.618;2023-03-17T01:53:30;5.87;;;3.23;;
3083;SDS011;1552;51.952;7.618;2023-03-17T01:55:58;4.30;;;2.93;;
3083;SDS011;1552;51.952;7.618;2023-03-17T01:58:26;4.67;;;2.97;;
3083;SDS011;1552;51.952;7.618;2023-03-17T02:00:52;4.67;;;3.03;;
3083;SDS011;1552;51.952;7.618;2023-03-17T02:03:19;7.30;;;3.20;;
3083;SDS011;1552;51.952;7.618;2023-03-17T02:05:46;3.53;;;2.90;;
3083;SDS011;1552;51.952;7.618;2023-03-17T02:08:15;4.43;;;2.80;;
3083;SDS011;1552;51.952;7.618;2023-03-17T02:10:42;4.60;;;2.87;;
3083;SDS011;1552;51.952;7.618;2023-03-17T02:13:10;4.07;;;2.80;;
3083;SDS011;1552;51.952;7.618;2023-03-17T02:15:38;4.60;;;2.67;;
3083;SDS011;1552;51.952;7.618;2023-03-17T02:18:05;5.50;;;3.00;;
3083;SDS011;1552;51.952;7.618;2023-03-17T02:23:27;5.50;;;3.23;;
3083;SDS011;1552;51.952;7.618;2023-03-17T02:25:53;6.10;;;2.80;;
3083;SDS011;1552;51.952;7.618;2023-03-17T02:28:22;5.07;;;3.43;;
3083;SDS011;1552;51.952;7.618;2023-03-17T02:30:51;4.37;;;3.10;;
3083;SDS011;1552;51.952;7.618;2023-03-17T02:33:17;5.40;;;2.63;;
3083;SDS011;1552;51.952;7.618;2023-03-17T02:35:44;4.00;;;2.77;;
3083;SDS011;1552;51.952;7.618;2023-03-17T02:38:10;5.37;;;2.90;;
3083;SDS011;1552;51.952;7.618;2023-03-17T02:40:38;5.03;;;2.80;;
3083;SDS011;1552;51.952;7.618;2023-03-17T02:43:04;3.73;;;2.60;;
3083;SDS011;1552;51.952;7.618;2023-03-17T02:45:31;6.37;;;3.20;;
3083;SDS011;1552;51.952;7.618;2023-03-17T02:47:57;5.00;;;2.93;;
3083;SDS011;1552;51.952;7.618;2023-03-17T02:50:24;4.03;;;2.80;;
3083;SDS011;1552;51.952;7.618;2023-03-17T02:52:51;4.93;;;2.70;;
3083;SDS011;1552;51.952;7.618;2023-03-17T02:55:18;5.40;;;2.83;;
3083;SDS011;1552;51.952;7.618;2023-03-17T02:57:45;3.93;;;3.17;;
3083;SDS011;1552;51.952;7.618;2023-03-17T03:00:12;5.37;;;2.77;;
3083;SDS011;1552;51.952;7.618;2023-03-17T03:02:38;6.17;;;2.97;;
3083;SDS011;1552;51.952;7.618;2023-03-17T03:05:05;3.47;;;2.73;;
3083;SDS011;1552;51.952;7.618;2023-03-17T03:07:32;3.90;;;2.77;;
3083;SDS011;1552;51.952;7.618;2023-03-17T03:09:59;3.53;;;2.67;;
3083;SDS011;1552;51.952;7.618;2023-03-17T03:12:26;4.40;;;2.90;;
3083;SDS011;1552;51.952;7.618;2023-03-17T03:14:54;3.67;;;2.60;;
3083;SDS011;1552;51.952;7.618;2023-03-17T03:17:20;4.23;;;2.67;;
3083;SDS011;1552;51.952;7.618;2023-03-17T03:19:47;4.33;;;3.03;;
3083;SDS011;1552;51.952;7.618;2023-03-17T03:22:13;15.07;;;3.87;;
3083;SDS011;1552;51.952;7.618;2023-03-17T03:24:39;4.50;;;3.00;;
3083;SDS011;1552;51.952;7.618;2023-03-17T03:27:06;6.70;;;3.43;;
3083;SDS011;1552;51.952;7.618;2023-03-17T03:29:32;4.90;;;3.17;;
3083;SDS011;1552;51.952;7.618;2023-03-17T03:32:00;4.90;;;2.90;;
3083;SDS011;1552;51.952;7.618;2023-03-17T03:34:27;7.87;;;3.77;;
3083;SDS011;1552;51.952;7.618;2023-03-17T03:36:53;3.33;;;2.97;;
3083;SDS011;1552;51.952;7.618;2023-03-17T03:39:20;5.77;;;3.20;;
3083;SDS011;1552;51.952;7.618;2023-03-17T03:41:46;6.23;;;3.90;;
3083;SDS011;1552;51.952;7.618;2023-03-17T03:44:12;5.77;;;3.40;;
3083;SDS011;1552;51.952;7.618;2023-03-17T03:46:38;4.57;;;3.17;;
3083;SDS011;1552;51.952;7.618;2023-03-17T03:49:06;4.27;;;2.97;;
3083;SDS011;1552;51.952;7.618;2023-03-17T03:51:32;4.83;;;2.90;;
3083;SDS011;1552;51.952;7.618;2023-03-17T03:53:59;3.37;;;2.77;;
3083;SDS011;1552;51.952;7.618;2023-03-17T03:56:25;5.23;;;3.27;;
3083;SDS011;1552;51.952;7.618;2023-03-17T03:58:52;5.93;;;3.60;;
3083;SDS011;1552;51.952;7.618;2023-03-17T04:01:18;5.43;;;3.33;;
3083;SDS011;1552;51.952;7.618;2023-03-17T04:03:44;5.00;;;3.47;;
3083;SDS011;1552;51.952;7.618;2023-03-17T04:06:12;5.67;;;3.33;;
3083;SDS011;1552;51.952;7.618;2023-03-17T04:08:39;4.17;;;3.20;;
3083;SDS011;1552;51.952;7.618;2023-03-17T04:11:05;5.77;;;3.20;;
3083;SDS011;1552;51.952;7.618;2023-03-17T04:13:32;4.87;;;3.03;;
3083;SDS011;1552;51.952;7.618;2023-03-17T04:15:59;4.63;;;3.10;;
3083;SDS011;1552;51.952;7.618;2023-03-17T04:18:26;5.00;;;3.00;;
3083;SDS011;1552;51.952;7.618;2023-03-17T04:20:52;4.97;;;3.20;;
3083;SDS011;1552;51.952;7.618;2023-03-17T04:23:20;9.57;;;3.13;;
3083;SDS011;1552;51.952;7.618;2023-03-17T04:25:48;4.87;;;2.70;;
3083;SDS011;1552;51.952;7.618;2023-03-17T04:28:14;5.30;;;3.57;;
3083;SDS011;1552;51.952;7.618;2023-03-17T04:30:41;6.77;;;3.13;;
3083;SDS011;1552;51.952;7.618;2023-03-17T04:33:07;5.87;;;3.67;;
3083;SDS011;1552;51.952;7.618;2023-03-17T04:35:34;5.77;;;2.87;;
3083;SDS011;1552;51.952;7.618;2023-03-17T04:38:00;6.90;;;3.20;;
3083;SDS011;1552;51.952;7.618;2023-03-17T04:40:28;5.60;;;3.03;;
3083;SDS011;1552;51.952;7.618;2023-03-17T04:42:54;6.23;;;3.00;;
3083;SDS011;1552;51.952;7.618;2023-03-17T04:45:20;5.70;;;3.50;;
3083;SDS011;1552;51.952;7.618;2023-03-17T04:47:47;7.97;;;3.90;;
3083;SDS011;1552;51.952;7.618;2023-03-17T04:50:13;4.23;;;2.87;;
3083;SDS011;1552;51.952;7.618;2023-03-17T04:52:40;6.03;;;3.10;;
3083;SDS011;1552;51.952;7.618;2023-03-17T04:55:06;4.53;;;3.20;;
3083;SDS011;1552;51.952;7.618;2023-03-17T04:57:34;4.33;;;2.87;;
3083;SDS011;1552;51.952;7.618;2023-03-17T05:00:01;8.70;;;4.37;;
3083;SDS011;1552;51.952;7.618;2023-03-17T05:02:28;5.63;;;3.80;;
3083;SDS011;1552;51.952;7.618;2023-03-17T05:04:54;8.23;;;4.23;;
3083;SDS011;1552;51.952;7.618;2023-03-17T05:07:21;7.53;;;3.80;;
3083;SDS011;1552;51.952;7.618;2023-03-17T05:09:47;7.17;;;3.50;;
3083;SDS011;1552;51.952;7.618;2023-03-17T05:12:13;3.37;;;3.07;;
3083;SDS011;1552;51.952;7.618;2023-03-17T05:14:41;4.27;;;3.00;;
3083;SDS011;1552;51.952;7.618;2023-03-17T05:17:08;4.73;;;3.10;;
3083;SDS011;1552;51.952;7.618;2023-03-17T05:19:34;4.53;;;3.33;;
3083;SDS011;1552;51.952;7.618;2023-03-17T05:22:00;5.80;;;3.53;;
3083;SDS011;1552;51.952;7.618;2023-03-17T05:24:27;3.83;;;2.90;;
3083;SDS011;1552;51.952;7.618;2023-03-17T05:26:53;5.57;;;3.50;;
3083;SDS011;1552;51.952;7.618;2023-03-17T05:29:19;6.10;;;3.13;;
3083;SDS011;1552;51.952;7.618;2023-03-17T05:31:47;6.20;;;2.93;;
3083;SDS011;1552;51.952;7.618;2023-03-17T05:34:13;3.93;;;3.40;;
3083;SDS011;1552;51.952;7.618;2023-03-17T05:36:40;6.33;;;3.33;;
3083;SDS011;1552;51.952;7.618;2023-03-17T05:39:07;5.40;;;3.63;;
3083;SDS011;1552;51.952;7.618;2023-03-17T05:41:33;6.40;;;3.27;;
3083;SDS011;1552;51.952;7.618;2023-03-17T05:44:00;5.43;;;3.00;;
3083;SDS011;1552;51.952;7.618;2023-03-17T05:46:26;4.90;;;3.43;;
3083;SDS011;1552;51.952;7.618;2023-03-17T05:48:54;6.53;;;4.03;;
3083;SDS011;1552;51.952;7.618;2023-03-17T05:51:20;5.60;;;3.33;;
3083;SDS011;1552;51.952;7.618;2023-03-17T05:53:46;6.03;;;3.50;;
3083;SDS011;1552;51.952;7.618;2023-03-17T05:56:13;6.83;;;3.70;;
3083;SDS011;1552;51.952;7.618;2023-03-17T05:58:39;6.63;;;3.63;;
3083;SDS011;1552;51.952;7.618;2023-03-17T06:01:06;8.33;;;3.63;;
3083;SDS011;1552;51.952;7.618;2023-03-17T06:03:33;10.63;;;3.90;;
3083;SDS011;1552;51.952;7.618;2023-03-17T06:06:03;7.60;;;3.53;;
3083;SDS011;1552;51.952;7.618;2023-03-17T06:08:30;6.57;;;3.40;;
3083;SDS011;1552;51.952;7.618;2023-03-17T06:10:56;9.60;;;3.40;;
3083;SDS011;1552;51.952;7.618;2023-03-17T06:13:22;8.13;;;4.03;;
3083;SDS011;1552;51.952;7.618;2023-03-17T06:15:49;7.83;;;3.80;;
3083;SDS011;1552;51.952;7.618;2023-03-17T06:18:16;8.87;;;4.83;;
3083;SDS011;1552;51.952;7.618;2023-03-17T06:20:43;7.93;;;3.97;;
3083;SDS011;1552;51.952;7.618;2023-03-17T06:23:12;8.67;;;4.43;;
3083;SDS011;1552;51.952;7.618;2023-03-17T06:25:38;8.70;;;5.00;;
3083;SDS011;1552;51.952;7.618;2023-03-17T06:28:04;6.60;;;4.17;;
3083;SDS011;1552;51.952;7.618;2023-03-17T06:30:31;7.23;;;3.77;;
3083;SDS011;1552;51.952;7.618;2023-03-17T06:32:57;7.50;;;4.20;;
3083;SDS011;1552;51.952;7.618;2023-03-17T06:35:24;6.27;;;4.20;;
3083;SDS011;1552;51.952;7.618;2023-03-17T06:37:50;8.27;;;4.03;;
3083;SDS011;1552;51.952;7.618;2023-03-17T06:40:18;5.67;;;3.77;;
3083;SDS011;1552;51.952;7.618;2023-03-17T06:42:44;6.50;;;4.00;;
3083;SDS011;1552;51.952;7.618;2023-03-17T06:45:11;6.63;;;3.93;;
3083;SDS011;1552;51.952;7.618;2023-03-17T06:47:38;6.63;;;3.30;;
3083;SDS011;1552;51.952;7.618;2023-03-17T06:50:05;7.53;;;3.70;;
3083;SDS011;1552;51.952;7.618;2023-03-17T06:52:33;7.13;;;3.57;;
3083;SDS011;1552;51.952;7.618;2023-03-17T06:55:00;6.97;;;3.40;;
3083;SDS011;1552;51.952;7.618;2023-03-17T06:57:27;7.93;;;3.73;;
3083;SDS011;1552;51.952;7.618;2023-03-17T06:59:54;9.07;;;4.00;;
3083;SDS011;1552;51.952;7.618;2023-03-17T07:02:20;7.43;;;3.67;;
3083;SDS011;1552;51.952;7.618;2023-03-17T07:04:47;4.90;;;3.20;;
3083;SDS011;1552;51.952;7.618;2023-03-17T07:07:13;5.03;;;3.17;;
3083;SDS011;1552;51.952;7.618;2023-03-17T07:09:40;5.23;;;3.37;;
3083;SDS011;1552;51.952;7.618;2023-03-17T07:12:07;9.97;;;3.90;;
3083;SDS011;1552;51.952;7.618;2023-03-17T07:14:35;5.17;;;3.00;;
3083;SDS011;1552;51.952;7.618;2023-03-17T07:17:02;7.60;;;4.17;;
3083;SDS011;1552;51.952;7.618;2023-03-17T07:19:29;6.00;;;3.63;;
3083;SDS011;1552;51.952;7.618;2023-03-17T07:21:55;5.40;;;3.57;;
3083;SDS011;1552;51.952;7.618;2023-03-17T07:24:22;4.73;;;3.60;;
3083;SDS011;1552;51.952;7.618;2023-03-17T07:26:48;9.37;;;3.87;;
3083;SDS011;1552;51.952;7.618;2023-03-17T07:29:15;10.50;;;4.50;;
3083;SDS011;1552;51.952;7.618;2023-03-17T07:31:42;10.07;;;4.60;;
3083;SDS011;1552;51.952;7.618;2023-03-17T07:34:09;10.23;;;4.20;;
3083;SDS011;1552;51.952;7.618;2023-03-17T07:36:36;6.53;;;4.07;;
3083;SDS011;1552;51.952;7.618;2023-03-17T07:39:02;10.30;;;4.27;;
3083;SDS011;1552;51.952;7.618;2023-03-17T07:41:29;7.40;;;4.30;;
3083;SDS011;1552;51.952;7.618;2023-03-17T07:43:55;11.03;;;4.00;;
3083;SDS011;1552;51.952;7.618;2023-03-17T07:46:22;9.80;;;3.63;;
3083;SDS011;1552;51.952;7.618;2023-03-17T07:48:50;9.43;;;4.77;;
3083;SDS011;1552;51.952;7.618;2023-03-17T07:51:18;6.43;;;3.77;;
3083;SDS011;1552;51.952;7.618;2023-03-17T07:53:45;4.80;;;3.67;;
3083;SDS011;1552;51.952;7.618;2023-03-17T07:56:14;8.33;;;4.10;;
3083;SDS011;1552;51.952;7.618;2023-03-17T07:58:40;6.23;;;3.43;;
3083;SDS011;1552;51.952;7.618;2023-03-17T08:01:07;10.40;;;4.47;;
3083;SDS011;1552;51.952;7.618;2023-03-17T08:03:34;7.83;;;4.60;;
3083;SDS011;1552;51.952;7.618;2023-03-17T08:06:02;12.67;;;4.40;;
3083;SDS011;1552;51.952;7.618;2023-03-17T08:08:30;7.77;;;4.23;;
3083;SDS011;1552;51.952;7.618;2023-03-17T08:10:59;6.73;;;3.57;;
3083;SDS011;1552;51.952;7.618;2023-03-17T08:13:25;8.57;;;4.53;;
3083;SDS011;1552;51.952;7.618;2023-03-17T08:15:52;4.80;;;2.90;;
3083;SDS011;1552;51.952;7.618;2023-03-17T08:18:18;7.40;;;3.33;;
3083;SDS011;1552;51.952;7.618;2023-03-17T08:20:45;6.07;;;2.93;;
3083;SDS011;1552;51.952;7.618;2023-03-17T08:23:12;6.57;;;2.97;;
3083;SDS011;1552;51.952;7.618;2023-03-17T08:25:39;10.43;;;2.93;;
3083;SDS011;1552;51.952;7.618;2023-03-17T08:28:05;4.80;;;3.23;;
3083;SDS011;1552;51.952;7.618;2023-03-17T08:30:32;6.60;;;2.67;;
3083;SDS011;1552;51.952;7.618;2023-03-17T08:32:58;4.43;;;2.70;;
3083;SDS011;1552;51.952;7.618;2023-03-17T08:35:24;3.80;;;2.90;;
3083;SDS011;1552;51.952;7.618;2023-03-17T08:37:51;3.27;;;2.87;;
3083;SDS011;1552;51.952;7.618;2023-03-17T08:40:19;5.27;;;2.57;;
3083;SDS011;1552;51.952;7.618;2023-03-17T08:42:45;5.13;;;3.10;;
3083;SDS011;1552;51.952;7.618;2023-03-17T08:45:12;5.33;;;2.87;;
3083;SDS011;1552;51.952;7.618;2023-03-17T08:47:39;6.53;;;3.33;;
3083;SDS011;1552;51.952;7.618;2023-03-17T08:50:06;9.43;;;3.50;;
3083;SDS011;1552;51.952;7.618;2023-03-17T08:52:33;7.03;;;3.20;;
3083;SDS011;1552;51.952;7.618;2023-03-17T08:54:59;8.10;;;3.63;;
3083;SDS011;1552;51.952;7.618;2023-03-17T08:57:27;6.13;;;3.10;;
3083;SDS011;1552;51.952;7.618;2023-03-17T08:59:54;5.30;;;2.97;;
3083;SDS011;1552;51.952;7.618;2023-03-17T09:02:20;4.13;;;2.67;;
3083;SDS011;1552;51.952;7.618;2023-03-17T09:04:46;5.30;;;2.70;;
3083;SDS011;1552;51.952;7.618;2023-03-17T09:07:13;6.70;;;3.20;;
3083;SDS011;1552;51.952;7.618;2023-03-17T09:09:39;5.20;;;2.80;;
3083;SDS011;1552;51.952;7.618;2023-03-17T09:12:06;4.60;;;2.80;;
3083;SDS011;1552;51.952;7.618;2023-03-17T09:14:34;3.77;;;2.60;;
3083;SDS011;1552;51.952;7.618;2023-03-17T09:17:01;3.63;;;2.63;;
3083;SDS011;1552;51.952;7.618;2023-03-17T09:19:27;4.27;;;2.57;;
3083;SDS011;1552;51.952;7.618;2023-03-17T09:21:53;5.07;;;2.53;;
3083;SDS011;1552;51.952;7.618;2023-03-17T09:24:20;7.40;;;2.60;;
3083;SDS011;1552;51.952;7.618;2023-03-17T09:26:46;4.30;;;2.50;;
3083;SDS011;1552;51.952;7.618;2023-03-17T09:29:12;4.63;;;2.50;;
3083;SDS011;1552;51.952;7.618;2023-03-17T09:31:40;4.40;;;2.47;;
3083;SDS011;1552;51.952;7.618;2023-03-17T09:34:08;5.70;;;2.40;;
3083;SDS011;1552;51.952;7.618;2023-03-17T09:36:35;4.97;;;2.67;;
3083;SDS011;1552;51.952;7.618;2023-03-17T09:39:02;5.13;;;2.70;;
3083;SDS011;1552;51.952;7.618;2023-03-17T09:41:32;5.47;;;2.50;;
3083;SDS011;1552;51.952;7.618;2023-03-17T09:44:03;6.17;;;2.20;;
3083;SDS011;1552;51.952;7.618;2023-03-17T09:46:35;8.10;;;2.27;;
3083;SDS011;1552;51.952;7.618;2023-03-17T09:49:08;4.97;;;2.60;;
3083;SDS011;1552;51.952;7.618;2023-03-17T09:51:36;3.93;;;2.37;;
3083;SDS011;1552;51.952;7.618;2023-03-17T09:54:04;6.13;;;2.43;;
3083;SDS011;1552;51.952;7.618;2023-03-17T09:56:32;6.63;;;2.73;;
3083;SDS011;1552;51.952;7.618;2023-03-17T09:58:59;4.37;;;2.23;;
3083;SDS011;1552;51.952;7.618;2023-03-17T10:01:28;3.87;;;2.00;;
3083;SDS011;1552;51.952;7.618;2023-03-17T10:03:56;4.50;;;2.33;;
3083;SDS011;1552;51.952;7.618;2023-03-17T10:06:33;3.20;;;2.20;;
3083;SDS011;1552;51.952;7.618;2023-03-17T10:09:04;4.00;;;2.40;;
3083;SDS011;1552;51.952;7.618;2023-03-17T10:11:34;6.93;;;2.90;;
3083;SDS011;1552;51.952;7.618;2023-03-17T10:14:02;5.23;;;2.87;;
3083;SDS011;1552;51.952;7.618;2023-03-17T10:16:33;4.37;;;2.43;;
3083;SDS011;1552;51.952;7.618;2023-03-17T10:19:03;6.70;;;2.70;;
3083;SDS011;1552;51.952;7.618;2023-03-17T10:21:32;5.40;;;2.37;;
3083;SDS011;1552;51.952;7.618;2023-03-17T10:24:00;6.63;;;2.57;;
3083;SDS011;1552;51.952;7.618;2023-03-17T10:26:28;4.77;;;2.60;;
3083;SDS011;1552;51.952;7.618;2023-03-17T10:28:56;6.80;;;2.57;;
3083;SDS011;1552;51.952;7.618;2023-03-17T10:31:26;9.90;;;3.17;;
3083;SDS011;1552;51.952;7.618;2023-03-17T10:33:53;5.53;;;2.73;;
3083;SDS011;1552;51.952;7.618;2023-03-17T10:36:31;4.47;;;2.27;;
3083;SDS011;1552;51.952;7.618;2023-03-17T10:38:57;7.20;;;2.50;;
3083;SDS011;1552;51.952;7.618;2023-03-17T10:41:25;5.10;;;2.17;;
3083;SDS011;1552;51.952;7.618;2023-03-17T10:43:52;3.60;;;2.37;;
3083;SDS011;1552;51.952;7.618;2023-03-17T10:46:19;4.87;;;2.87;;
3083;SDS011;1552;51.952;7.618;2023-03-17T10:48:48;6.17;;;2.50;;
3083;SDS011;1552;51.952;7.618;2023-03-17T10:51:17;4.03;;;2.40;;
3083;SDS011;1552;51.952;7.618;2023-03-17T10:53:45;5.72;;;2.60;;
3083;SDS011;1552;51.952;7.618;2023-03-17T10:56:17;4.07;;;2.50;;
3083;SDS011;1552;51.952;7.618;2023-03-17T10:58:46;3.17;;;1.83;;
3083;SDS011;1552;51.952;7.618;2023-03-17T11:01:15;5.22;;;2.40;;
3083;SDS011;1552;51.952;7.618;2023-03-17T11:03:41;5.15;;;2.30;;
3083;SDS011;1552;51.952;7.618;2023-03-17T11:06:09;13.60;;;3.30;;
3083;SDS011;1552;51.952;7.618;2023-03-17T11:08:37;4.93;;;2.28;;
3083;SDS011;1552;51.952;7.618;2023-03-17T11:11:04;3.85;;;2.05;;
3083;SDS011;1552;51.952;7.618;2023-03-17T11:13:31;4.80;;;2.47;;
3083;SDS011;1552;51.952;7.618;2023-03-17T11:16:03;4.47;;;2.67;;
3083;SDS011;1552;51.952;7.618;2023-03-17T11:18:33;6.80;;;2.70;;
3083;SDS011;1552;51.952;7.618;2023-03-17T11:21:01;6.95;;;3.00;;
3083;SDS011;1552;51.952;7.618;2023-03-17T11:23:32;3.88;;;2.67;;
3083;SDS011;1552;51.952;7.618;2023-03-17T11:26:06;6.28;;;2.83;;
3083;SDS011;1552;51.952;7.618;2023-03-17T11:28:34;5.80;;;2.63;;
3083;SDS011;1552;51.952;7.618;2023-03-17T11:31:07;7.28;;;2.88;;
3083;SDS011;1552;51.952;7.618;2023-03-17T11:33:35;6.60;;;3.05;;
3083;SDS011;1552;51.952;7.618;2023-03-17T11:36:10;5.00;;;2.70;;
3083;SDS011;1552;51.952;7.618;2023-03-17T11:38:40;7.88;;;2.85;;
3083;SDS011;1552;51.952;7.618;2023-03-17T11:41:18;8.38;;;3.05;;
3083;SDS011;1552;51.952;7.618;2023-03-17T11:43:50;5.47;;;2.65;;
3083;SDS011;1552;51.952;7.618;2023-03-17T11:46:26;5.13;;;2.60;;
3083;SDS011;1552;51.952;7.618;2023-03-17T11:48:54;4.07;;;2.38;;
3083;SDS011;1552;51.952;7.618;2023-03-17T11:51:24;3.78;;;2.40;;
3083;SDS011;1552;51.952;7.618;2023-03-17T11:54:07;4.15;;;2.22;;
3083;SDS011;1552;51.952;7.618;2023-03-17T11:56:39;4.45;;;2.40;;
3083;SDS011;1552;51.952;7.618;2023-03-17T11:59:10;5.95;;;2.60;;
3083;SDS011;1552;51.952;7.618;2023-03-17T12:01:43;6.95;;;2.50;;
3083;SDS011;1552;51.952;7.618;2023-03-17T12:04:13;6.38;;;2.83;;
3083;SDS011;1552;51.952;7.618;2023-03-17T12:06:43;5.57;;;2.38;;
3083;SDS011;1552;51.952;7.618;2023-03-17T12:09:14;5.38;;;2.38;;
3083;SDS011;1552;51.952;7.618;2023-03-17T12:11:44;7.07;;;2.88;;
3083;SDS011;1552;51.952;7.618;2023-03-17T12:14:18;5.30;;;2.80;;
3083;SDS011;1552;51.952;7.618;2023-03-17T12:16:48;3.60;;;2.20;;
3083;SDS011;1552;51.952;7.618;2023-03-17T12:19:17;8.50;;;2.22;;
3083;SDS011;1552;51.952;7.618;2023-03-17T12:21:45;4.22;;;2.50;;
3083;SDS011;1552;51.952;7.618;2023-03-17T12:24:15;3.85;;;2.53;;
3083;SDS011;1552;51.952;7.618;2023-03-17T12:26:46;6.13;;;2.83;;
3083;SDS011;1552;51.952;7.618;2023-03-17T12:29:16;7.78;;;2.50;;
3083;SDS011;1552;51.952;7.618;2023-03-17T12:31:45;6.28;;;2.20;;
3083;SDS011;1552;51.952;7.618;2023-03-17T12:34:17;4.03;;;2.47;;
3083;SDS011;1552;51.952;7.618;2023-03-17T12:36:45;5.85;;;2.30;;
3083;SDS011;1552;51.952;7.618;2023-03-17T12:39:13;4.20;;;2.08;;
3083;SDS011;1552;51.952;7.618;2023-03-17T12:41:44;4.45;;;2.35;;
3083;SDS011;1552;51.952;7.618;2023-03-17T12:44:17;3.42;;;2.60;;
3083;SDS011;1552;51.952;7.618;2023-03-17T12:47:02;4.90;;;2.33;;
3083;SDS011;1552;51.952;7.618;2023-03-17T12:49:36;3.83;;;2.45;;
3083;SDS011;1552;51.952;7.618;2023-03-17T12:52:16;4.00;;;2.25;;
3083;SDS011;1552;51.952;7.618;2023-03-17T12:54:48;7.80;;;2.50;;
3083;SDS011;1552;51.952;7.618;2023-03-17T12:57:17;3.13;;;2.30;;
3083;SDS011;1552;51.952;7.618;2023-03-17T12:59:44;6.63;;;2.72;;
3083;SDS011;1552;51.952;7.618;2023-03-17T13:02:13;4.57;;;2.20;;
3083;SDS011;1552;51.952;7.618;2023-03-17T13:04:47;2.72;;;2.10;;
3083;SDS011;1552;51.952;7.618;2023-03-17T13:07:14;4.07;;;2.15;;
3083;SDS011;1552;51.952;7.618;2023-03-17T13:09:43;4.50;;;2.58;;
3083;SDS011;1552;51.952;7.618;2023-03-17T13:14:55;3.28;;;2.45;;
3083;SDS011;1552;51.952;7.618;2023-03-17T13:17:29;3.88;;;2.08;;
3083;SDS011;1552;51.952;7.618;2023-03-17T13:20:02;3.72;;;2.00;;
3083;SDS011;1552;51.952;7.618;2023-03-17T13:22:33;4.43;;;1.98;;
3083;SDS011;1552;51.952;7.618;2023-03-17T13:25:11;3.55;;;2.17;;
3083;SDS011;1552;51.952;7.618;2023-03-17T13:27:42;3.28;;;1.88;;
3083;SDS011;1552;51.952;7.618;2023-03-17T13:32:54;3.45;;;2.03;;
3083;SDS011;1552;51.952;7.618;2023-03-17T13:35:26;2.78;;;1.98;;
3083;SDS011;1552;51.952;7.618;2023-03-17T13:40:47;5.32;;;2.17;;
3083;SDS011;1552;51.952;7.618;2023-03-17T13:43:20;2.95;;;2.05;;
3083;SDS011;1552;51.952;7.618;2023-03-17T13:45:51;4.22;;;2.10;;
3083;SDS011;1552;51.952;7.618;2023-03-17T13:48:25;4.80;;;2.40;;
3083;SDS011;1552;51.952;7.618;2023-03-17T13:50:54;7.15;;;3.15;;
3083;SDS011;1552;51.952;7.618;2023-03-17T13:53:21;6.03;;;2.15;;
3083;SDS011;1552;51.952;7.618;2023-03-17T13:58:32;4.85;;;1.83;;
3083;SDS011;1552;51.952;7.618;2023-03-17T14:01:00;3.90;;;1.88;;
3083;SDS011;1552;51.952;7.618;2023-03-17T14:03:29;5.50;;;1.90;;
3083;SDS011;1552;51.952;7.618;2023-03-17T14:05:57;4.53;;;1.90;;
3083;SDS011;1552;51.952;7.618;2023-03-17T14:08:27;3.70;;;1.80;;
3083;SDS011;1552;51.952;7.618;2023-03-17T14:10:55;6.22;;;2.20;;
3083;SDS011;1552;51.952;7.618;2023-03-17T14:13:22;7.28;;;1.80;;
3083;SDS011;1552;51.952;7.618;2023-03-17T14:15:50;3.70;;;2.38;;
3083;SDS011;1552;51.952;7.618;2023-03-17T14:18:21;6.90;;;3.75;;
3083;SDS011;1552;51.952;7.618;2023-03-17T14:20:52;3.92;;;2.30;;
3083;SDS011;1552;51.952;7.618;2023-03-17T14:23:21;3.20;;;2.00;;
3083;SDS011;1552;51.952;7.618;2023-03-17T14:25:48;2.65;;;1.85;;
3083;SDS011;1552;51.952;7.618;2023-03-17T14:28:15;4.68;;;2.20;;
3083;SDS011;1552;51.952;7.618;2023-03-17T14:30:48;4.85;;;2.00;;
3083;SDS011;1552;51.952;7.618;2023-03-17T14:33:19;2.50;;;1.95;;
3083;SDS011;1552;51.952;7.618;2023-03-17T14:35:48;3.33;;;1.98;;
3083;SDS011;1552;51.952;7.618;2023-03-17T14:38:16;3.13;;;1.88;;
3083;SDS011;1552;51.952;7.618;2023-03-17T14:40:44;3.08;;;2.00;;
3083;SDS011;1552;51.952;7.618;2023-03-17T14:43:10;5.55;;;1.90;;
3083;SDS011;1552;51.952;7.618;2023-03-17T14:45:40;7.72;;;2.30;;
3083;SDS011;1552;51.952;7.618;2023-03-17T14:48:10;3.78;;;2.05;;
3083;SDS011;1552;51.952;7.618;2023-03-17T14:50:42;4.82;;;1.70;;
3083;SDS011;1552;51.952;7.618;2023-03-17T14:53:12;3.17;;;1.70;;
3083;SDS011;1552;51.952;7.618;2023-03-17T14:55:40;4.65;;;1.73;;
3083;SDS011;1552;51.952;7.618;2023-03-17T14:58:09;4.38;;;1.55;;
3083;SDS011;1552;51.952;7.618;2023-03-17T15:00:36;5.00;;;1.98;;
3083;SDS011;1552;51.952;7.618;2023-03-17T15:03:03;10.65;;;2.60;;
3083;SDS011;1552;51.952;7.618;2023-03-17T15:05:41;2.13;;;1.48;;
3083;SDS011;1552;51.952;7.618;2023-03-17T15:08:28;4.03;;;1.88;;
3083;SDS011;1552;51.952;7.618;2023-03-17T15:10:56;5.63;;;1.73;;
3083;SDS011;1552;51.952;7.618;2023-03-17T15:13:24;3.15;;;1.58;;
3083;SDS011;1552;51.952;7.618;2023-03-17T15:15:51;4.35;;;2.05;;
3083;SDS011;1552;51.952;7.618;2023-03-17T15:18:17;5.97;;;1.90;;
3083;SDS011;1552;51.952;7.618;2023-03-17T15:20:45;3.55;;;2.03;;
3083;SDS011;1552;51.952;7.618;2023-03-17T15:23:14;3.05;;;2.08;;
3083;SDS011;1552;51.952;7.618;2023-03-17T15:25:41;3.13;;;1.92;;
3083;SDS011;1552;51.952;7.618;2023-03-17T15:28:09;4.40;;;1.98;;
3083;SDS011;1552;51.952;7.618;2023-03-17T15:30:39;3.63;;;2.20;;
3083;SDS011;1552;51.952;7.618;2023-03-17T15:33:11;4.97;;;2.40;;
3083;SDS011;1552;51.952;7.618;2023-03-17T15:35:41;6.13;;;2.65;;